createdAt,value
2022-08-14T00:02:07.453Z,31.55
2022-08-14T00:04:42.322Z,34.97
2022-08-14T00:07:15.518Z,30.05
2022-08-14T00:10:02.469Z,31.33
2022-08-14T00:12:41.788Z,29.40
2022-08-14T00:15:15.453Z,23.80
2022-08-14T00:17:47.574Z,21.65
2022-08-14T00:20:23.544Z,25.05
2022-08-14T00:22:57.373Z,22.23
2022-08-14T00:25:41.855Z,22.80
2022-08-14T00:28:17.653Z,22.55
2022-08-14T00:30:48.340Z,20.55
2022-08-14T00:33:18.186Z,21.27
2022-08-14T00:36:36.387Z,19.60
2022-08-14T00:38:38.583Z,18.83
2022-08-14T00:41:10.839Z,18.02
2022-08-14T00:43:43.470Z,17.55
2022-08-14T00:46:32.757Z,19.45
2022-08-14T00:49:03.843Z,17.95
2022-08-14T00:51:38.307Z,17.77
2022-08-14T00:54:11.205Z,16.05
2022-08-14T00:56:55.765Z,19.48
2022-08-14T00:59:29.846Z,16.15
2022-08-14T01:02:01.824Z,14.45
2022-08-14T01:04:38.033Z,20.08
2022-08-14T01:07:27.373Z,17.20
2022-08-14T01:10:02.668Z,17.60
2022-08-14T01:12:34.083Z,19.23
2022-08-14T01:15:14.987Z,19.42
2022-08-14T01:18:04.836Z,19.25
2022-08-14T01:20:53.641Z,15.50
2022-08-14T01:23:25.434Z,16.75
2022-08-14T01:26:14.047Z,18.52
2022-08-14T01:29:07.475Z,18.98
2022-08-14T01:31:50.250Z,18.77
2022-08-14T01:35:18.700Z,17.38
2022-08-14T01:39:48.300Z,15.68
2022-08-14T01:42:31.759Z,15.68
2022-08-14T01:45:12.727Z,14.05
2022-08-14T01:47:47.719Z,13.70
2022-08-14T01:50:20.435Z,14.68
2022-08-14T01:53:00.196Z,18.27
2022-08-14T01:55:32.432Z,12.98
2022-08-14T01:58:19.689Z,12.25
2022-08-14T02:00:59.993Z,18.83
2022-08-14T02:03:31.622Z,13.90
2022-08-14T02:11:29.063Z,15.00
2022-08-14T02:14:06.808Z,13.73
2022-08-14T02:16:41.541Z,17.30
2022-08-14T02:19:15.413Z,11.98
2022-08-14T02:21:48.738Z,12.93
2022-08-14T02:24:38.834Z,16.23
2022-08-14T02:28:25.869Z,20.20
2022-08-14T02:30:06.507Z,12.65
2022-08-14T02:32:38.367Z,14.52
2022-08-14T02:37:49.604Z,16.77
2022-08-14T02:40:32.361Z,16.10
2022-08-14T02:43:07.934Z,18.10
2022-08-14T02:45:44.517Z,19.77
2022-08-14T02:49:03.452Z,16.83
2022-08-14T02:51:09.114Z,13.13
2022-08-14T02:53:42.247Z,13.77
2022-08-14T02:56:30.912Z,12.45
2022-08-14T02:59:08.339Z,14.43
2022-08-14T03:01:43.270Z,19.33
2022-08-14T03:04:20.885Z,16.95
2022-08-14T03:07:06.427Z,18.80
2022-08-14T03:09:41.931Z,20.13
2022-08-14T03:12:32.730Z,18.95
2022-08-14T03:15:16.322Z,20.25
2022-08-14T03:17:57.673Z,22.58
2022-08-14T03:20:29.308Z,22.80
2022-08-14T03:23:03.242Z,16.95
2022-08-14T03:25:37.813Z,17.20
2022-08-14T03:28:14.680Z,20.25
2022-08-14T03:31:15.367Z,29.77
2022-08-14T03:33:51.728Z,17.10
2022-08-14T03:37:51.891Z,18.98
2022-08-14T03:41:55.700Z,15.18
2022-08-14T03:45:19.617Z,16.90
2022-08-14T03:47:18.839Z,19.20
2022-08-14T03:49:50.169Z,15.48
2022-08-14T03:52:40.659Z,18.33
2022-08-14T03:55:14.059Z,18.10
2022-08-14T03:57:45.505Z,16.58
2022-08-14T04:00:43.870Z,20.40
2022-08-14T04:03:13.270Z,18.55
2022-08-14T04:05:48.883Z,16.80
2022-08-14T04:08:28.932Z,24.55
2022-08-14T04:11:02.953Z,19.77
2022-08-14T04:13:39.317Z,23.38
2022-08-14T04:16:13.161Z,20.65
2022-08-14T04:18:46.742Z,16.90
2022-08-14T04:21:17.857Z,16.02
2022-08-14T04:23:56.935Z,15.93
2022-08-14T04:26:42.389Z,17.38
2022-08-14T04:29:15.709Z,22.63
2022-08-14T04:32:57.834Z,15.52
2022-08-14T04:34:42.160Z,20.10
2022-08-14T04:37:29.993Z,18.05
2022-08-14T04:40:17.971Z,16.13
2022-08-14T04:43:08.893Z,14.75
2022-08-14T04:45:44.614Z,13.90
2022-08-14T04:48:39.018Z,13.73
2022-08-14T04:51:09.578Z,14.13
2022-08-14T04:53:43.660Z,15.50
2022-08-14T04:56:31.492Z,14.40
2022-08-14T04:59:10.572Z,14.23
2022-08-14T05:01:49.145Z,14.38
2022-08-14T05:04:22.953Z,16.65
2022-08-14T05:09:48.373Z,12.70
2022-08-14T05:13:12.657Z,14.90
2022-08-14T05:15:13.602Z,11.57
2022-08-14T05:17:58.567Z,10.52
2022-08-14T05:21:57.782Z,12.55
2022-08-14T05:23:34.740Z,13.35
2022-08-14T05:26:13.344Z,12.68
2022-08-14T05:28:46.496Z,12.68
2022-08-14T05:31:21.217Z,11.65
2022-08-14T05:33:56.503Z,10.48
2022-08-14T05:36:29.007Z,15.88
2022-08-14T05:39:06.682Z,19.35
2022-08-14T05:41:53.972Z,17.00
2022-08-14T05:44:29.657Z,14.85
2022-08-14T05:47:01.159Z,14.70
2022-08-14T05:49:34.371Z,13.70
2022-08-14T05:52:09.714Z,11.70
2022-08-14T05:54:40.685Z,15.63
2022-08-14T05:57:13.645Z,12.45
2022-08-14T05:59:43.970Z,12.98
2022-08-14T06:02:14.599Z,17.77
2022-08-14T06:04:49.375Z,19.30
2022-08-14T06:07:19.740Z,15.82
2022-08-14T06:09:52.665Z,13.38
2022-08-14T06:12:31.383Z,11.43
2022-08-14T06:15:17.426Z,8.68
2022-08-14T06:17:58.760Z,10.32
2022-08-14T06:20:31.942Z,10.70
2022-08-14T06:23:05.626Z,10.07
2022-08-14T06:28:06.876Z,8.43
2022-08-14T06:30:57.684Z,12.18
2022-08-14T06:35:01.408Z,10.68
2022-08-14T06:36:22.470Z,11.40
2022-08-14T06:38:54.871Z,9.75
2022-08-14T06:41:57.552Z,12.10
2022-08-14T06:44:30.809Z,12.95
2022-08-14T06:47:10.546Z,11.07
2022-08-14T06:49:48.544Z,6.95
2022-08-14T06:52:30.121Z,7.03
2022-08-14T06:55:01.115Z,6.63
2022-08-14T06:57:40.872Z,7.47
2022-08-14T07:00:22.507Z,6.88
2022-08-14T07:03:21.777Z,6.70
2022-08-14T07:05:59.812Z,6.72
2022-08-14T07:08:48.926Z,7.28
2022-08-14T07:11:36.735Z,8.38
2022-08-14T07:14:16.373Z,5.63
2022-08-14T07:17:03.300Z,6.10
2022-08-14T07:19:35.117Z,7.32
2022-08-14T07:22:17.398Z,5.63
2022-08-14T07:25:01.254Z,5.88
2022-08-14T07:27:36.174Z,6.07
2022-08-14T07:30:34.037Z,33.97
2022-08-14T07:33:06.995Z,4.28
2022-08-14T07:35:57.267Z,5.95
2022-08-14T07:38:37.626Z,5.95
2022-08-14T07:41:12.012Z,4.82
2022-08-14T07:43:55.117Z,4.70
2022-08-14T07:49:08.005Z,6.70
2022-08-14T07:51:51.643Z,7.03
2022-08-14T07:54:30.310Z,5.55
2022-08-14T07:57:12.268Z,7.18
2022-08-14T07:59:51.139Z,7.53
2022-08-14T08:02:29.793Z,5.13
2022-08-14T08:05:06.544Z,4.90
2022-08-14T08:07:43.097Z,13.63
2022-08-14T08:10:57.100Z,8.20
2022-08-14T08:13:29.234Z,9.15
2022-08-14T08:16:02.267Z,4.65
2022-08-14T08:18:36.093Z,4.25
2022-08-14T08:21:08.547Z,5.50
2022-08-14T08:23:50.878Z,5.20
2022-08-14T08:26:34.333Z,6.93
2022-08-14T08:29:11.005Z,5.78
2022-08-14T08:31:52.628Z,4.75
2022-08-14T08:34:24.236Z,7.57
2022-08-14T08:37:03.867Z,8.15
2022-08-14T08:40:02.891Z,5.45
2022-08-14T08:42:41.272Z,8.48
2022-08-14T08:45:19.485Z,4.35
2022-08-14T08:47:51.966Z,4.47
2022-08-14T08:53:11.559Z,4.53
2022-08-14T08:55:47.102Z,6.15
2022-08-14T08:58:25.253Z,4.97
2022-08-14T09:00:57.842Z,5.28
2022-08-14T09:03:37.875Z,7.03
2022-08-14T09:07:01.311Z,6.65
2022-08-14T09:09:22.357Z,4.65
2022-08-14T09:12:00.900Z,8.57
2022-08-14T09:14:32.059Z,6.10
2022-08-14T09:17:08.202Z,5.50
2022-08-14T09:20:25.927Z,8.43
2022-08-14T09:23:12.971Z,20.65
2022-08-14T09:26:00.415Z,6.35
2022-08-14T09:28:32.328Z,10.30
2022-08-14T09:31:17.412Z,8.57
2022-08-14T09:34:19.792Z,8.57
2022-08-14T09:37:39.477Z,9.48
2022-08-14T09:40:23.361Z,6.97
2022-08-14T09:43:08.157Z,7.95
2022-08-14T09:45:52.901Z,7.00
2022-08-14T09:48:29.847Z,5.85
2022-08-14T09:54:17.710Z,6.13
2022-08-14T09:56:56.930Z,7.50
2022-08-14T09:59:41.103Z,9.13
2022-08-14T10:02:28.114Z,7.03
2022-08-14T10:05:03.642Z,6.30
2022-08-14T10:07:41.261Z,6.57
2022-08-14T10:10:34.638Z,7.45
2022-08-14T10:13:09.065Z,11.68
2022-08-14T10:15:48.487Z,7.35
2022-08-14T10:18:31.638Z,6.65
2022-08-14T10:21:09.492Z,7.75
2022-08-14T10:23:57.876Z,7.50
2022-08-14T10:26:36.697Z,9.07
2022-08-14T10:29:19.802Z,12.95
2022-08-14T10:32:01.584Z,5.50
2022-08-14T10:34:38.654Z,6.50
2022-08-14T10:37:15.330Z,6.55
2022-08-14T10:40:02.087Z,6.82
2022-08-14T10:42:44.001Z,5.68
2022-08-14T10:45:27.749Z,8.27
2022-08-14T10:48:07.701Z,11.75
2022-08-14T10:50:51.720Z,6.33
2022-08-14T10:53:39.930Z,6.88
2022-08-14T10:56:35.705Z,5.85
2022-08-14T10:59:10.914Z,9.65
2022-08-14T11:01:42.889Z,11.27
2022-08-14T11:04:32.368Z,6.80
2022-08-14T11:07:21.217Z,5.80
2022-08-14T11:09:57.514Z,8.55
2022-08-14T11:12:44.135Z,6.82
2022-08-14T11:15:17.296Z,7.18
2022-08-14T11:17:56.141Z,5.70
2022-08-14T11:20:34.474Z,6.05
2022-08-14T11:23:08.695Z,9.32
2022-08-14T11:25:53.375Z,6.35
2022-08-14T11:28:48.116Z,6.03
2022-08-14T11:31:23.673Z,6.07
2022-08-14T11:33:59.634Z,9.05
2022-08-14T11:36:35.331Z,6.10
2022-08-14T11:39:34.386Z,5.97
2022-08-14T11:42:56.388Z,5.18
2022-08-14T11:45:11.062Z,6.90
2022-08-14T11:48:13.748Z,7.72
2022-08-14T11:50:55.578Z,8.10
2022-08-14T11:53:42.131Z,6.38
2022-08-14T11:56:19.276Z,6.05
2022-08-14T11:58:57.034Z,6.03
2022-08-14T12:01:32.643Z,5.95
2022-08-14T12:04:32.360Z,5.95
2022-08-14T12:07:14.912Z,7.45
2022-08-14T12:09:47.220Z,7.95
2022-08-14T12:12:35.173Z,7.37
2022-08-14T12:15:11.211Z,5.90
2022-08-14T12:17:50.642Z,5.78
2022-08-14T12:20:32.570Z,8.65
2022-08-14T12:23:11.140Z,7.05
2022-08-14T12:25:46.507Z,5.45
2022-08-14T12:28:34.088Z,5.32
2022-08-14T12:31:36.219Z,8.38
2022-08-14T12:34:20.598Z,6.47
2022-08-14T12:37:21.269Z,6.22
2022-08-14T12:39:57.645Z,5.30
2022-08-14T12:42:39.634Z,5.50
2022-08-14T12:45:16.770Z,6.80
2022-08-14T12:47:51.350Z,7.88
2022-08-14T12:50:35.652Z,6.40
2022-08-14T12:53:14.492Z,5.97
2022-08-14T12:56:22.591Z,7.63
2022-08-14T12:58:57.675Z,5.13
2022-08-14T13:02:00.139Z,6.28
2022-08-14T13:04:35.472Z,6.20
2022-08-14T13:07:08.570Z,5.93
2022-08-14T13:09:41.149Z,6.30
2022-08-14T13:12:32.481Z,10.82
2022-08-14T13:15:09.578Z,5.43
2022-08-14T13:17:51.100Z,6.80
2022-08-14T13:23:04.181Z,5.43
2022-08-14T13:25:37.957Z,6.53
2022-08-14T13:28:29.929Z,11.18
2022-08-14T13:31:11.293Z,5.30
2022-08-14T13:33:43.157Z,7.80
2022-08-14T13:36:23.941Z,6.65
2022-08-14T13:38:56.416Z,6.38
2022-08-14T13:41:31.721Z,7.50
2022-08-14T13:44:13.810Z,6.07
2022-08-14T13:46:45.930Z,8.73
2022-08-14T13:49:18.697Z,6.20
2022-08-14T13:51:50.830Z,5.93
2022-08-14T13:54:26.114Z,8.27
2022-08-14T13:57:03.885Z,9.30
2022-08-14T13:59:38.656Z,8.40
2022-08-14T14:02:09.926Z,11.43
2022-08-14T14:04:42.563Z,5.40
2022-08-14T14:07:23.478Z,6.85
2022-08-14T14:09:57.611Z,9.50
2022-08-14T14:12:38.051Z,8.02
2022-08-14T14:15:18.387Z,6.00
2022-08-14T14:17:55.735Z,7.63
2022-08-14T14:20:35.644Z,9.40
2022-08-14T14:23:12.066Z,6.93
2022-08-14T14:25:49.285Z,6.68
2022-08-14T14:28:33.795Z,10.98
2022-08-14T14:31:08.621Z,8.55
2022-08-14T14:33:46.956Z,8.48
2022-08-14T14:36:21.732Z,6.70
2022-08-14T14:38:59.354Z,7.45
2022-08-14T14:41:43.979Z,7.38
2022-08-14T14:44:19.254Z,7.15
2022-08-14T14:46:53.179Z,7.57
2022-08-14T14:49:25.961Z,9.80
2022-08-14T14:52:23.450Z,6.22
2022-08-14T14:54:59.606Z,7.82
2022-08-14T14:57:35.096Z,7.22
2022-08-14T15:00:12.807Z,9.52
2022-08-14T15:02:47.632Z,8.13
2022-08-14T15:05:21.083Z,7.50
2022-08-14T15:07:54.309Z,12.68
2022-08-14T15:10:27.533Z,6.20
2022-08-14T15:13:04.281Z,6.75
2022-08-14T15:15:36.806Z,9.30
2022-08-14T15:18:36.355Z,9.70
2022-08-14T15:21:04.112Z,11.10
2022-08-14T15:23:44.298Z,9.48
2022-08-14T15:26:24.313Z,10.25
2022-08-14T15:29:04.941Z,7.38
2022-08-14T15:31:37.502Z,11.57
2022-08-14T15:34:43.101Z,7.38
2022-08-14T15:37:12.988Z,18.73
2022-08-14T15:39:52.522Z,10.80
2022-08-14T15:42:28.435Z,12.50
2022-08-14T15:45:02.294Z,10.90
2022-08-14T15:47:43.926Z,7.38
2022-08-14T15:50:19.480Z,17.25
2022-08-14T15:52:51.729Z,12.10
2022-08-14T15:55:27.987Z,8.90
2022-08-14T15:58:14.477Z,9.88
2022-08-14T16:01:05.033Z,9.60
2022-08-14T16:03:42.382Z,6.70
2022-08-14T16:06:19.531Z,6.22
2022-08-14T16:08:58.676Z,7.90
2022-08-14T16:11:32.824Z,9.63
2022-08-14T16:14:11.355Z,8.50
2022-08-14T16:16:51.025Z,44.75
2022-08-14T16:19:31.265Z,11.10
2022-08-14T16:22:58.274Z,6.50
2022-08-14T16:25:03.394Z,9.63
2022-08-14T16:27:40.613Z,11.02
2022-08-14T16:30:24.781Z,14.50
2022-08-14T16:33:01.069Z,8.77
2022-08-14T16:35:43.053Z,14.95
2022-08-14T16:38:45.941Z,8.82
2022-08-14T16:41:23.325Z,6.18
2022-08-14T16:43:59.257Z,10.65
2022-08-14T16:46:38.197Z,9.88
2022-08-14T16:49:18.923Z,8.18
2022-08-14T16:51:53.136Z,8.63
2022-08-14T16:54:34.791Z,11.20
2022-08-14T16:57:21.639Z,13.07
2022-08-14T16:59:57.240Z,11.27
2022-08-14T17:02:43.104Z,8.32
2022-08-14T17:05:21.153Z,8.57
2022-08-14T17:08:31.604Z,11.43
2022-08-14T17:11:12.344Z,10.38
2022-08-14T17:13:59.934Z,11.48
2022-08-14T17:16:41.846Z,10.52
2022-08-14T17:19:17.525Z,15.43
2022-08-14T17:21:57.925Z,15.10
2022-08-14T17:24:58.091Z,14.15
2022-08-14T17:27:23.906Z,14.00
2022-08-14T17:29:59.889Z,10.93
2022-08-14T17:32:55.666Z,15.05
2022-08-14T17:35:38.944Z,13.48
2022-08-14T17:38:39.505Z,12.75
2022-08-14T17:41:27.302Z,16.10
2022-08-14T17:44:34.316Z,12.00
2022-08-14T17:47:14.789Z,8.57
2022-08-14T17:49:52.268Z,14.40
2022-08-14T17:52:34.458Z,13.77
2022-08-14T17:55:10.346Z,10.82
2022-08-14T17:58:20.472Z,11.13
2022-08-14T18:01:04.920Z,10.95
2022-08-14T18:03:45.829Z,18.45
2022-08-14T18:06:39.875Z,13.43
2022-08-14T18:09:24.940Z,15.57
2022-08-14T18:11:58.649Z,11.95
2022-08-14T18:14:48.294Z,8.20
2022-08-14T18:17:31.204Z,10.82
2022-08-14T18:20:16.056Z,9.57
2022-08-14T18:22:58.811Z,9.88
2022-08-14T18:25:30.507Z,8.30
2022-08-14T18:28:16.119Z,12.13
2022-08-14T18:30:58.112Z,11.48
2022-08-14T18:33:36.402Z,9.45
2022-08-14T18:36:54.413Z,15.50
2022-08-14T18:39:32.702Z,12.88
2022-08-14T18:42:44.099Z,12.38
2022-08-14T18:45:19.105Z,13.05
2022-08-14T18:48:50.225Z,16.77
2022-08-14T18:51:46.058Z,13.52
2022-08-14T18:54:38.098Z,12.00
2022-08-14T18:57:10.138Z,13.43
2022-08-14T18:59:43.313Z,11.75
2022-08-14T19:02:44.606Z,14.10
2022-08-14T19:05:59.336Z,12.75
2022-08-14T19:08:41.723Z,13.88
2022-08-14T19:11:56.369Z,12.10
2022-08-14T19:14:47.580Z,15.18
2022-08-14T19:18:14.937Z,11.50
2022-08-14T19:20:52.651Z,12.50
2022-08-14T19:23:44.077Z,20.60
2022-08-14T19:26:34.695Z,8.80
2022-08-14T19:31:56.463Z,10.55
2022-08-14T19:34:48.078Z,13.23
2022-08-14T19:37:52.382Z,16.15
2022-08-14T19:40:38.008Z,12.38
2022-08-14T19:43:55.394Z,12.75
2022-08-14T19:46:39.215Z,11.00
2022-08-14T19:50:08.058Z,13.05
2022-08-14T19:55:45.639Z,9.27
2022-08-14T19:58:16.252Z,10.27
2022-08-14T20:01:19.110Z,11.33
2022-08-14T20:04:00.072Z,9.65
2022-08-14T20:06:46.716Z,8.10
2022-08-14T20:11:05.013Z,13.48
2022-08-14T20:12:28.991Z,11.32
2022-08-14T20:15:09.119Z,13.40
2022-08-14T20:17:53.295Z,7.70
2022-08-14T20:20:31.754Z,8.40
2022-08-14T20:23:11.877Z,9.32
2022-08-14T20:25:56.912Z,15.95
2022-08-14T20:28:35.452Z,10.88
2022-08-14T20:31:20.133Z,8.60
2022-08-14T20:34:07.192Z,9.30
2022-08-14T20:36:49.816Z,12.35
2022-08-14T20:39:24.249Z,9.88
2022-08-14T20:42:35.844Z,7.53
2022-08-14T20:45:24.745Z,9.27
2022-08-14T20:48:01.701Z,7.85
2022-08-14T20:50:44.828Z,9.73
2022-08-14T20:53:34.764Z,7.75
2022-08-14T20:56:28.760Z,7.97
2022-08-14T20:59:00.936Z,13.90
2022-08-14T21:01:38.694Z,10.55
2022-08-14T21:04:31.187Z,12.88
2022-08-14T21:07:25.749Z,10.55
2022-08-14T21:10:33.475Z,11.77
2022-08-14T21:14:17.822Z,11.60
2022-08-14T21:19:16.263Z,9.43
2022-08-14T21:21:54.711Z,12.85
2022-08-14T21:24:39.515Z,8.93
2022-08-14T21:27:21.856Z,10.75
2022-08-14T21:29:55.301Z,12.30
2022-08-14T21:32:50.283Z,9.00
2022-08-14T21:35:30.708Z,10.02
2022-08-14T21:38:10.802Z,10.68
2022-08-14T21:40:49.470Z,11.65
2022-08-14T21:45:56.194Z,10.48
2022-08-14T21:48:32.429Z,9.40
2022-08-14T21:51:53.631Z,13.05
2022-08-14T21:54:04.165Z,10.73
2022-08-14T21:56:39.703Z,12.52
2022-08-14T21:59:17.719Z,11.68
2022-08-14T22:02:01.810Z,9.80
2022-08-14T22:04:40.671Z,15.90
2022-08-14T22:07:45.379Z,19.48
2022-08-14T22:10:23.039Z,10.45
2022-08-14T22:13:00.421Z,9.68
2022-08-14T22:15:31.934Z,13.02
2022-08-14T22:18:04.836Z,8.32
2022-08-14T22:20:36.507Z,11.52
2022-08-14T22:23:10.076Z,11.27
2022-08-14T22:25:43.308Z,12.55
2022-08-14T22:28:20.193Z,11.32
2022-08-14T22:30:54.669Z,10.65
2022-08-14T22:33:31.009Z,15.93
2022-08-14T22:36:01.646Z,12.93
2022-08-14T22:38:38.947Z,13.40
2022-08-14T22:41:27.853Z,14.13
2022-08-14T22:44:06.586Z,14.88
2022-08-14T22:46:36.551Z,16.85
2022-08-14T22:49:16.152Z,12.98
2022-08-14T22:51:56.401Z,19.25
2022-08-14T22:54:51.901Z,15.38
2022-08-14T22:57:24.698Z,18.15
2022-08-14T23:00:12.213Z,12.75
2022-08-14T23:02:44.472Z,11.88
2022-08-14T23:05:15.336Z,10.60
2022-08-14T23:08:56.911Z,12.88
2022-08-14T23:10:40.795Z,15.35
2022-08-14T23:13:21.610Z,14.43
2022-08-14T23:15:56.473Z,13.52
2022-08-14T23:18:45.605Z,15.30
2022-08-14T23:21:17.195Z,11.00
2022-08-14T23:23:57.368Z,11.32
2022-08-14T23:26:49.504Z,10.35
2022-08-14T23:29:22.456Z,9.15
2022-08-14T23:34:55.621Z,12.45
2022-08-14T23:38:04.370Z,10.30
2022-08-14T23:40:36.139Z,9.90
2022-08-14T23:43:10.132Z,10.80
2022-08-14T23:45:46.241Z,14.00
2022-08-14T23:48:27.931Z,9.80
2022-08-14T23:51:00.163Z,15.52
2022-08-14T23:53:47.654Z,11.43
2022-08-14T23:56:32.054Z,10.65
2022-08-14T23:59:03.886Z,12.45
